45CL weather

Hell'er High Water Airport
Zenia, California, United States

Public forecast

Using degrees Fahrenheit for public forecast. Weather courtesy of forecast.io.

Closest aviation weather report (METAR) to Hell'er High Water Airport

Closest report is Rohnerville Airport, 41.7 nm (77.2 km) NW. Retrieved 2019/10/21 08:35 UTC (24 minutes ago):

KFOT 210835Z AUTO 15005KT 5SM CLR 09/09 A3025 RMK AO1

Closest aviation forecast (TAF) to Hell'er High Water Airport

Closest forecast is Red Bluff Municipal Airport, 52.6 nm (97.4 km) E. Retrieved 2019/10/21 06:30 UTC (2 hours ago):

TAF KRBL 210527Z 2106/2206 33005KT P6SM SKC FM211900 35012KT P6SM SKC